sensor_id;sensor_type;location;lat;lon;timestamp;temperature;humidity
10654;DHT22;5375;51.250;6.776;2023-04-08T00:01:32;19.40;47.60
10654;DHT22;5375;51.250;6.776;2023-04-08T00:03:57;19.40;47.60
10654;DHT22;5375;51.250;6.776;2023-04-08T00:06:23;19.40;47.60
10654;DHT22;5375;51.250;6.776;2023-04-08T00:08:48;19.40;47.60
10654;DHT22;5375;51.250;6.776;2023-04-08T00:11:14;19.40;47.60
10654;DHT22;5375;51.250;6.776;2023-04-08T00:13:40;19.40;47.60
10654;DHT22;5375;51.250;6.776;2023-04-08T00:16:06;19.40;47.60
10654;DHT22;5375;51.250;6.776;2023-04-08T00:18:32;19.40;47.60
10654;DHT22;5375;51.250;6.776;2023-04-08T00:20:57;19.40;47.60
10654;DHT22;5375;51.250;6.776;2023-04-08T00:23:23;19.40;47.60
10654;DHT22;5375;51.250;6.776;2023-04-08T00:25:49;19.40;47.60
10654;DHT22;5375;51.250;6.776;2023-04-08T00:28:18;19.40;47.60
10654;DHT22;5375;51.250;6.776;2023-04-08T00:30:43;19.40;47.60
10654;DHT22;5375;51.250;6.776;2023-04-08T00:33:10;19.40;47.70
10654;DHT22;5375;51.250;6.776;2023-04-08T00:35:35;19.40;47.70
10654;DHT22;5375;51.250;6.776;2023-04-08T00:38:01;19.40;47.70
10654;DHT22;5375;51.250;6.776;2023-04-08T00:40:27;19.40;47.70
10654;DHT22;5375;51.250;6.776;2023-04-08T00:42:53;19.30;47.60
10654;DHT22;5375;51.250;6.776;2023-04-08T00:45:21;19.40;47.70
10654;DHT22;5375;51.250;6.776;2023-04-08T00:47:46;19.40;47.70
10654;DHT22;5375;51.250;6.776;2023-04-08T00:50:17;19.30;47.60
10654;DHT22;5375;51.250;6.776;2023-04-08T00:52:42;19.30;47.60
10654;DHT22;5375;51.250;6.776;2023-04-08T00:55:08;19.30;47.60
10654;DHT22;5375;51.250;6.776;2023-04-08T00:57:34;19.30;47.60
10654;DHT22;5375;51.250;6.776;2023-04-08T01:00:01;19.30;47.60
10654;DHT22;5375;51.250;6.776;2023-04-08T01:02:50;19.30;47.60
10654;DHT22;5375;51.250;6.776;2023-04-08T01:08:13;19.30;47.60
10654;DHT22;5375;51.250;6.776;2023-04-08T01:10:40;19.30;47.70
10654;DHT22;5375;51.250;6.776;2023-04-08T01:13:11;19.30;47.70
10654;DHT22;5375;51.250;6.776;2023-04-08T01:15:39;19.40;47.70
10654;DHT22;5375;51.250;6.776;2023-04-08T01:18:08;19.30;47.70
10654;DHT22;5375;51.250;6.776;2023-04-08T01:20:35;19.30;47.70
10654;DHT22;5375;51.250;6.776;2023-04-08T01:23:09;19.40;47.70
10654;DHT22;5375;51.250;6.776;2023-04-08T01:25:38;19.30;47.70
10654;DHT22;5375;51.250;6.776;2023-04-08T01:33:05;19.30;47.70
10654;DHT22;5375;51.250;6.776;2023-04-08T01:35:34;19.30;47.70
10654;DHT22;5375;51.250;6.776;2023-04-08T01:38:06;19.30;47.70
10654;DHT22;5375;51.250;6.776;2023-04-08T01:40:34;19.30;47.70
10654;DHT22;5375;51.250;6.776;2023-04-08T01:43:02;19.30;47.70
10654;DHT22;5375;51.250;6.776;2023-04-08T01:45:29;19.30;47.70
10654;DHT22;5375;51.250;6.776;2023-04-08T01:47:56;19.30;47.70
10654;DHT22;5375;51.250;6.776;2023-04-08T01:50:23;19.30;47.70
10654;DHT22;5375;51.250;6.776;2023-04-08T01:52:50;19.30;47.70
10654;DHT22;5375;51.250;6.776;2023-04-08T01:55:18;19.30;47.70
10654;DHT22;5375;51.250;6.776;2023-04-08T01:57:47;19.30;47.70
10654;DHT22;5375;51.250;6.776;2023-04-08T02:00:16;19.30;47.70
10654;DHT22;5375;51.250;6.776;2023-04-08T02:02:43;19.30;47.70
10654;DHT22;5375;51.250;6.776;2023-04-08T02:05:11;19.30;47.70
10654;DHT22;5375;51.250;6.776;2023-04-08T02:07:37;19.30;47.70
10654;DHT22;5375;51.250;6.776;2023-04-08T02:10:03;19.30;47.70
10654;DHT22;5375;51.250;6.776;2023-04-08T02:12:31;19.30;47.70
10654;DHT22;5375;51.250;6.776;2023-04-08T02:14:59;19.30;47.70
10654;DHT22;5375;51.250;6.776;2023-04-08T02:18:01;19.30;47.70
10654;DHT22;5375;51.250;6.776;2023-04-08T02:20:42;19.30;47.70
10654;DHT22;5375;51.250;6.776;2023-04-08T02:23:23;19.30;47.70
10654;DHT22;5375;51.250;6.776;2023-04-08T02:25:54;19.30;47.80
10654;DHT22;5375;51.250;6.776;2023-04-08T02:28:20;19.30;47.80
10654;DHT22;5375;51.250;6.776;2023-04-08T02:30:50;19.30;47.80
10654;DHT22;5375;51.250;6.776;2023-04-08T02:33:21;19.30;47.80
10654;DHT22;5375;51.250;6.776;2023-04-08T02:35:48;19.30;47.80
10654;DHT22;5375;51.250;6.776;2023-04-08T02:38:15;19.20;47.80
10654;DHT22;5375;51.250;6.776;2023-04-08T02:40:41;19.20;47.80
10654;DHT22;5375;51.250;6.776;2023-04-08T02:43:06;19.30;47.90
10654;DHT22;5375;51.250;6.776;2023-04-08T02:45:42;19.20;47.80
10654;DHT22;5375;51.250;6.776;2023-04-08T02:48:09;19.30;47.80
10654;DHT22;5375;51.250;6.776;2023-04-08T02:50:36;19.20;47.80
10654;DHT22;5375;51.250;6.776;2023-04-08T02:53:04;19.30;47.90
10654;DHT22;5375;51.250;6.776;2023-04-08T02:55:30;19.20;47.90
10654;DHT22;5375;51.250;6.776;2023-04-08T02:57:55;19.20;47.80
10654;DHT22;5375;51.250;6.776;2023-04-08T03:00:21;19.20;47.80
10654;DHT22;5375;51.250;6.776;2023-04-08T03:02:50;19.30;47.80
10654;DHT22;5375;51.250;6.776;2023-04-08T03:05:16;19.30;47.90
10654;DHT22;5375;51.250;6.776;2023-04-08T03:07:46;19.30;48.00
10654;DHT22;5375;51.250;6.776;2023-04-08T03:10:12;19.30;48.00
10654;DHT22;5375;51.250;6.776;2023-04-08T03:12:37;19.40;48.00
10654;DHT22;5375;51.250;6.776;2023-04-08T03:15:03;19.30;48.00
10654;DHT22;5375;51.250;6.776;2023-04-08T03:17:29;19.30;48.00
10654;DHT22;5375;51.250;6.776;2023-04-08T03:19:59;19.40;48.10
10654;DHT22;5375;51.250;6.776;2023-04-08T03:22:29;19.30;48.00
10654;DHT22;5375;51.250;6.776;2023-04-08T03:24:54;19.40;48.20
10654;DHT22;5375;51.250;6.776;2023-04-08T03:27:21;19.30;48.00
10654;DHT22;5375;51.250;6.776;2023-04-08T03:29:48;19.30;48.00
10654;DHT22;5375;51.250;6.776;2023-04-08T03:32:14;19.30;48.00
10654;DHT22;5375;51.250;6.776;2023-04-08T03:34:41;19.30;48.00
10654;DHT22;5375;51.250;6.776;2023-04-08T03:37:07;19.30;48.10
10654;DHT22;5375;51.250;6.776;2023-04-08T03:39:38;19.30;48.10
10654;DHT22;5375;51.250;6.776;2023-04-08T03:42:03;19.30;48.10
10654;DHT22;5375;51.250;6.776;2023-04-08T03:44:29;19.30;48.10
10654;DHT22;5375;51.250;6.776;2023-04-08T03:46:55;19.30;48.20
10654;DHT22;5375;51.250;6.776;2023-04-08T03:55:06;19.30;48.00
10654;DHT22;5375;51.250;6.776;2023-04-08T03:57:31;19.40;48.20
10654;DHT22;5375;51.250;6.776;2023-04-08T03:59:57;19.40;48.10
10654;DHT22;5375;51.250;6.776;2023-04-08T04:02:23;19.30;48.00
10654;DHT22;5375;51.250;6.776;2023-04-08T04:04:49;19.40;48.00
10654;DHT22;5375;51.250;6.776;2023-04-08T04:07:15;19.40;48.00
10654;DHT22;5375;51.250;6.776;2023-04-08T04:09:41;19.40;48.00
10654;DHT22;5375;51.250;6.776;2023-04-08T04:12:07;17.90;47.20
10654;DHT22;5375;51.250;6.776;2023-04-08T04:14:34;19.40;47.90
10654;DHT22;5375;51.250;6.776;2023-04-08T04:17:00;19.40;47.90
10654;DHT22;5375;51.250;6.776;2023-04-08T04:19:29;19.40;48.00
10654;DHT22;5375;51.250;6.776;2023-04-08T04:21:55;19.40;47.90
10654;DHT22;5375;51.250;6.776;2023-04-08T04:24:21;19.50;48.00
10654;DHT22;5375;51.250;6.776;2023-04-08T04:26:47;19.40;47.90
10654;DHT22;5375;51.250;6.776;2023-04-08T04:29:12;19.50;48.00
10654;DHT22;5375;51.250;6.776;2023-04-08T04:31:38;19.50;48.00
10654;DHT22;5375;51.250;6.776;2023-04-08T04:34:06;19.50;48.00
10654;DHT22;5375;51.250;6.776;2023-04-08T04:36:32;19.50;48.10
10654;DHT22;5375;51.250;6.776;2023-04-08T04:38:57;19.50;48.10
10654;DHT22;5375;51.250;6.776;2023-04-08T04:41:24;19.60;48.20
10654;DHT22;5375;51.250;6.776;2023-04-08T04:43:52;19.60;48.30
10654;DHT22;5375;51.250;6.776;2023-04-08T04:46:20;19.60;48.20
10654;DHT22;5375;51.250;6.776;2023-04-08T04:48:48;19.60;48.20
10654;DHT22;5375;51.250;6.776;2023-04-08T04:51:18;19.70;48.20
10654;DHT22;5375;51.250;6.776;2023-04-08T04:53:44;19.70;48.20
10654;DHT22;5375;51.250;6.776;2023-04-08T04:56:10;19.70;48.20
10654;DHT22;5375;51.250;6.776;2023-04-08T04:58:35;19.70;48.20
10654;DHT22;5375;51.250;6.776;2023-04-08T05:01:01;19.70;48.20
10654;DHT22;5375;51.250;6.776;2023-04-08T05:03:26;19.70;48.20
10654;DHT22;5375;51.250;6.776;2023-04-08T05:05:55;19.70;48.20
10654;DHT22;5375;51.250;6.776;2023-04-08T05:08:21;19.80;48.20
10654;DHT22;5375;51.250;6.776;2023-04-08T05:10:50;19.70;48.20
10654;DHT22;5375;51.250;6.776;2023-04-08T05:13:17;19.70;48.20
10654;DHT22;5375;51.250;6.776;2023-04-08T05:15:43;19.80;48.20
10654;DHT22;5375;51.250;6.776;2023-04-08T05:18:11;19.80;48.30
10654;DHT22;5375;51.250;6.776;2023-04-08T05:20:37;19.80;48.20
10654;DHT22;5375;51.250;6.776;2023-04-08T05:23:04;19.80;48.30
10654;DHT22;5375;51.250;6.776;2023-04-08T05:25:30;19.70;48.10
10654;DHT22;5375;51.250;6.776;2023-04-08T05:27:56;19.70;48.10
10654;DHT22;5375;51.250;6.776;2023-04-08T05:30:21;19.70;48.10
10654;DHT22;5375;51.250;6.776;2023-04-08T05:32:47;19.70;48.00
10654;DHT22;5375;51.250;6.776;2023-04-08T05:35:13;19.70;48.00
10654;DHT22;5375;51.250;6.776;2023-04-08T05:37:39;19.70;48.00
10654;DHT22;5375;51.250;6.776;2023-04-08T05:40:06;19.70;48.00
10654;DHT22;5375;51.250;6.776;2023-04-08T05:42:32;19.70;48.00
10654;DHT22;5375;51.250;6.776;2023-04-08T05:44:58;19.70;48.00
10654;DHT22;5375;51.250;6.776;2023-04-08T05:47:25;19.70;48.00
10654;DHT22;5375;51.250;6.776;2023-04-08T05:49:51;19.70;48.00
10654;DHT22;5375;51.250;6.776;2023-04-08T05:52:17;19.70;48.00
10654;DHT22;5375;51.250;6.776;2023-04-08T05:54:47;19.70;48.00
10654;DHT22;5375;51.250;6.776;2023-04-08T05:57:12;19.70;48.10
10654;DHT22;5375;51.250;6.776;2023-04-08T05:59:44;19.60;48.00
10654;DHT22;5375;51.250;6.776;2023-04-08T06:02:11;19.60;48.00
10654;DHT22;5375;51.250;6.776;2023-04-08T06:04:37;19.60;48.00
10654;DHT22;5375;51.250;6.776;2023-04-08T06:07:03;19.60;48.00
10654;DHT22;5375;51.250;6.776;2023-04-08T06:09:33;19.60;47.90
10654;DHT22;5375;51.250;6.776;2023-04-08T06:12:00;19.60;48.00
10654;DHT22;5375;51.250;6.776;2023-04-08T06:14:26;19.60;48.00
10654;DHT22;5375;51.250;6.776;2023-04-08T06:16:54;19.60;48.00
10654;DHT22;5375;51.250;6.776;2023-04-08T06:19:21;19.60;48.00
10654;DHT22;5375;51.250;6.776;2023-04-08T06:21:49;19.60;48.00
10654;DHT22;5375;51.250;6.776;2023-04-08T06:24:16;19.60;48.00
10654;DHT22;5375;51.250;6.776;2023-04-08T06:26:41;19.60;47.90
10654;DHT22;5375;51.250;6.776;2023-04-08T06:29:08;19.60;48.00
10654;DHT22;5375;51.250;6.776;2023-04-08T06:31:34;19.60;48.10
10654;DHT22;5375;51.250;6.776;2023-04-08T06:33:59;19.60;48.00
10654;DHT22;5375;51.250;6.776;2023-04-08T06:36:29;19.60;47.90
10654;DHT22;5375;51.250;6.776;2023-04-08T06:38:55;19.60;47.90
10654;DHT22;5375;51.250;6.776;2023-04-08T06:41:22;19.60;48.00
10654;DHT22;5375;51.250;6.776;2023-04-08T06:43:48;19.50;47.90
10654;DHT22;5375;51.250;6.776;2023-04-08T06:46:14;19.60;47.90
10654;DHT22;5375;51.250;6.776;2023-04-08T06:48:40;19.50;47.90
10654;DHT22;5375;51.250;6.776;2023-04-08T06:51:06;19.50;47.90
10654;DHT22;5375;51.250;6.776;2023-04-08T06:53:32;19.50;47.90
10654;DHT22;5375;51.250;6.776;2023-04-08T06:55:59;19.50;47.90
10654;DHT22;5375;51.250;6.776;2023-04-08T06:58:28;19.50;47.90
10654;DHT22;5375;51.250;6.776;2023-04-08T07:00:55;19.60;48.00
10654;DHT22;5375;51.250;6.776;2023-04-08T07:03:27;19.50;47.90
10654;DHT22;5375;51.250;6.776;2023-04-08T07:05:55;19.50;47.90
10654;DHT22;5375;51.250;6.776;2023-04-08T07:08:20;19.50;47.90
10654;DHT22;5375;51.250;6.776;2023-04-08T07:10:51;19.50;47.90
10654;DHT22;5375;51.250;6.776;2023-04-08T07:13:18;19.50;47.90
10654;DHT22;5375;51.250;6.776;2023-04-08T07:15:46;19.50;47.90
10654;DHT22;5375;51.250;6.776;2023-04-08T07:18:12;19.50;47.90
10654;DHT22;5375;51.250;6.776;2023-04-08T07:20:40;19.50;47.90
10654;DHT22;5375;51.250;6.776;2023-04-08T07:23:11;19.50;47.90
10654;DHT22;5375;51.250;6.776;2023-04-08T07:25:37;19.50;47.90
10654;DHT22;5375;51.250;6.776;2023-04-08T07:28:03;19.50;48.00
10654;DHT22;5375;51.250;6.776;2023-04-08T07:30:33;19.50;47.90
10654;DHT22;5375;51.250;6.776;2023-04-08T07:33:03;19.50;48.00
10654;DHT22;5375;51.250;6.776;2023-04-08T07:35:30;19.50;48.00
10654;DHT22;5375;51.250;6.776;2023-04-08T07:37:56;19.50;47.90
10654;DHT22;5375;51.250;6.776;2023-04-08T07:40:22;19.50;48.00
10654;DHT22;5375;51.250;6.776;2023-04-08T07:42:50;19.50;48.00
10654;DHT22;5375;51.250;6.776;2023-04-08T07:45:19;19.50;47.90
10654;DHT22;5375;51.250;6.776;2023-04-08T07:47:46;19.50;47.90
10654;DHT22;5375;51.250;6.776;2023-04-08T07:50:12;19.50;47.90
10654;DHT22;5375;51.250;6.776;2023-04-08T07:52:38;19.50;47.90
10654;DHT22;5375;51.250;6.776;2023-04-08T07:55:04;19.50;47.90
10654;DHT22;5375;51.250;6.776;2023-04-08T07:57:30;19.50;47.90
10654;DHT22;5375;51.250;6.776;2023-04-08T07:59:56;19.50;47.90
10654;DHT22;5375;51.250;6.776;2023-04-08T08:02:25;19.50;47.90
10654;DHT22;5375;51.250;6.776;2023-04-08T08:04:53;19.50;47.90
10654;DHT22;5375;51.250;6.776;2023-04-08T08:07:18;19.50;48.00
10654;DHT22;5375;51.250;6.776;2023-04-08T08:12:14;19.50;48.00
10654;DHT22;5375;51.250;6.776;2023-04-08T08:14:40;19.50;48.00
10654;DHT22;5375;51.250;6.776;2023-04-08T08:17:08;19.50;48.00
10654;DHT22;5375;51.250;6.776;2023-04-08T08:19:40;19.50;48.00
10654;DHT22;5375;51.250;6.776;2023-04-08T08:22:06;19.50;48.00
10654;DHT22;5375;51.250;6.776;2023-04-08T08:24:31;19.50;48.10
10654;DHT22;5375;51.250;6.776;2023-04-08T08:26:57;19.50;48.00
10654;DHT22;5375;51.250;6.776;2023-04-08T08:29:23;19.50;48.00
10654;DHT22;5375;51.250;6.776;2023-04-08T08:31:54;19.50;48.00
10654;DHT22;5375;51.250;6.776;2023-04-08T08:34:20;19.50;48.00
10654;DHT22;5375;51.250;6.776;2023-04-08T08:36:46;19.50;48.00
10654;DHT22;5375;51.250;6.776;2023-04-08T08:39:14;19.50;48.00
10654;DHT22;5375;51.250;6.776;2023-04-08T08:41:40;19.50;48.00
10654;DHT22;5375;51.250;6.776;2023-04-08T08:44:08;19.50;48.00
10654;DHT22;5375;51.250;6.776;2023-04-08T08:46:36;19.50;48.00
10654;DHT22;5375;51.250;6.776;2023-04-08T08:49:06;19.50;48.00
10654;DHT22;5375;51.250;6.776;2023-04-08T08:51:34;19.50;48.00
10654;DHT22;5375;51.250;6.776;2023-04-08T08:54:03;19.50;48.00
10654;DHT22;5375;51.250;6.776;2023-04-08T08:56:31;19.50;48.10
10654;DHT22;5375;51.250;6.776;2023-04-08T08:58:57;19.50;47.90
10654;DHT22;5375;51.250;6.776;2023-04-08T09:01:36;19.50;47.90
10654;DHT22;5375;51.250;6.776;2023-04-08T09:04:11;19.50;47.90
10654;DHT22;5375;51.250;6.776;2023-04-08T09:06:40;19.50;47.90
10654;DHT22;5375;51.250;6.776;2023-04-08T09:09:07;19.50;48.10
10654;DHT22;5375;51.250;6.776;2023-04-08T09:11:45;19.50;47.90
10654;DHT22;5375;51.250;6.776;2023-04-08T09:14:20;19.50;47.90
10654;DHT22;5375;51.250;6.776;2023-04-08T09:16:46;19.50;47.90
10654;DHT22;5375;51.250;6.776;2023-04-08T09:19:13;19.50;48.00
10654;DHT22;5375;51.250;6.776;2023-04-08T09:21:42;19.50;47.90
10654;DHT22;5375;51.250;6.776;2023-04-08T09:26:45;19.50;48.00
10654;DHT22;5375;51.250;6.776;2023-04-08T09:29:10;19.50;48.00
10654;DHT22;5375;51.250;6.776;2023-04-08T09:31:39;19.50;48.10
10654;DHT22;5375;51.250;6.776;2023-04-08T09:34:16;19.50;48.10
10654;DHT22;5375;51.250;6.776;2023-04-08T09:36:44;19.50;48.10
10654;DHT22;5375;51.250;6.776;2023-04-08T09:39:12;19.50;48.10
10654;DHT22;5375;51.250;6.776;2023-04-08T09:44:18;19.50;48.20
10654;DHT22;5375;51.250;6.776;2023-04-08T09:55:01;19.50;48.20
10654;DHT22;5375;51.250;6.776;2023-04-08T10:00:26;19.60;48.30
10654;DHT22;5375;51.250;6.776;2023-04-08T10:03:03;19.60;48.20
10654;DHT22;5375;51.250;6.776;2023-04-08T10:05:31;19.60;48.20
10654;DHT22;5375;51.250;6.776;2023-04-08T10:07:58;19.60;48.30
10654;DHT22;5375;51.250;6.776;2023-04-08T10:10:24;19.60;48.30
10654;DHT22;5375;51.250;6.776;2023-04-08T10:12:51;19.60;48.30
10654;DHT22;5375;51.250;6.776;2023-04-08T10:15:30;19.60;48.30
10654;DHT22;5375;51.250;6.776;2023-04-08T10:23:08;19.60;48.40
10654;DHT22;5375;51.250;6.776;2023-04-08T10:25:42;19.60;48.30
10654;DHT22;5375;51.250;6.776;2023-04-08T10:35:58;19.60;48.40
10654;DHT22;5375;51.250;6.776;2023-04-08T10:38:24;19.60;48.40
10654;DHT22;5375;51.250;6.776;2023-04-08T10:40:49;19.60;48.40
10654;DHT22;5375;51.250;6.776;2023-04-08T10:43:16;19.70;48.40
10654;DHT22;5375;51.250;6.776;2023-04-08T10:45:42;19.70;48.40
10654;DHT22;5375;51.250;6.776;2023-04-08T10:48:25;19.70;48.50
10654;DHT22;5375;51.250;6.776;2023-04-08T10:53:28;19.70;48.50
10654;DHT22;5375;51.250;6.776;2023-04-08T10:56:11;19.70;48.60
10654;DHT22;5375;51.250;6.776;2023-04-08T10:58:53;19.70;48.40
10654;DHT22;5375;51.250;6.776;2023-04-08T11:01:20;19.70;48.40
10654;DHT22;5375;51.250;6.776;2023-04-08T11:03:50;19.70;48.50
10654;DHT22;5375;51.250;6.776;2023-04-08T11:06:25;19.70;48.50
10654;DHT22;5375;51.250;6.776;2023-04-08T11:08:52;19.70;48.50
10654;DHT22;5375;51.250;6.776;2023-04-08T11:11:21;19.70;48.40
10654;DHT22;5375;51.250;6.776;2023-04-08T11:13:48;19.70;48.40
10654;DHT22;5375;51.250;6.776;2023-04-08T11:16:13;19.70;48.40
10654;DHT22;5375;51.250;6.776;2023-04-08T11:18:39;19.70;48.40
10654;DHT22;5375;51.250;6.776;2023-04-08T11:21:11;19.70;48.40
10654;DHT22;5375;51.250;6.776;2023-04-08T11:23:37;19.70;48.40
10654;DHT22;5375;51.250;6.776;2023-04-08T11:26:03;19.70;48.40
10654;DHT22;5375;51.250;6.776;2023-04-08T11:28:29;19.70;48.40
10654;DHT22;5375;51.250;6.776;2023-04-08T11:30:55;19.70;48.50
10654;DHT22;5375;51.250;6.776;2023-04-08T11:33:24;19.70;48.40
10654;DHT22;5375;51.250;6.776;2023-04-08T11:35:51;19.70;48.60
10654;DHT22;5375;51.250;6.776;2023-04-08T11:38:22;19.70;48.40
10654;DHT22;5375;51.250;6.776;2023-04-08T11:40:53;19.70;48.40
10654;DHT22;5375;51.250;6.776;2023-04-08T11:43:21;19.70;48.40
10654;DHT22;5375;51.250;6.776;2023-04-08T11:45:54;19.70;48.40
10654;DHT22;5375;51.250;6.776;2023-04-08T11:48:19;19.70;48.40
10654;DHT22;5375;51.250;6.776;2023-04-08T11:50:45;19.70;48.40
10654;DHT22;5375;51.250;6.776;2023-04-08T11:53:28;19.80;48.50
10654;DHT22;5375;51.250;6.776;2023-04-08T11:55:54;19.80;48.50
10654;DHT22;5375;51.250;6.776;2023-04-08T11:58:20;19.80;48.50
10654;DHT22;5375;51.250;6.776;2023-04-08T12:00:46;19.80;48.40
10654;DHT22;5375;51.250;6.776;2023-04-08T12:03:12;19.70;48.30
10654;DHT22;5375;51.250;6.776;2023-04-08T12:05:38;19.70;48.30
10654;DHT22;5375;51.250;6.776;2023-04-08T12:08:03;19.70;48.30
10654;DHT22;5375;51.250;6.776;2023-04-08T12:10:31;19.70;48.30
10654;DHT22;5375;51.250;6.776;2023-04-08T12:12:57;19.70;48.30
10654;DHT22;5375;51.250;6.776;2023-04-08T12:15:27;19.70;48.20
10654;DHT22;5375;51.250;6.776;2023-04-08T12:17:52;19.70;48.30
10654;DHT22;5375;51.250;6.776;2023-04-08T12:20:18;19.70;48.10
10654;DHT22;5375;51.250;6.776;2023-04-08T12:22:44;19.70;48.00
10654;DHT22;5375;51.250;6.776;2023-04-08T12:25:09;19.70;48.00
10654;DHT22;5375;51.250;6.776;2023-04-08T12:27:35;19.70;48.00
10654;DHT22;5375;51.250;6.776;2023-04-08T12:30:02;19.70;48.00
10654;DHT22;5375;51.250;6.776;2023-04-08T12:32:28;19.70;47.90
10654;DHT22;5375;51.250;6.776;2023-04-08T12:34:54;19.70;47.90
10654;DHT22;5375;51.250;6.776;2023-04-08T12:37:20;19.70;47.90
10654;DHT22;5375;51.250;6.776;2023-04-08T12:39:46;19.70;47.90
10654;DHT22;5375;51.250;6.776;2023-04-08T12:42:12;19.70;47.80
10654;DHT22;5375;51.250;6.776;2023-04-08T12:44:38;19.70;47.80
10654;DHT22;5375;51.250;6.776;2023-04-08T12:47:03;19.70;47.80
10654;DHT22;5375;51.250;6.776;2023-04-08T12:49:29;19.70;47.80
10654;DHT22;5375;51.250;6.776;2023-04-08T12:51:54;19.70;47.80
10654;DHT22;5375;51.250;6.776;2023-04-08T12:54:20;19.70;47.80
10654;DHT22;5375;51.250;6.776;2023-04-08T12:56:46;19.70;47.70
10654;DHT22;5375;51.250;6.776;2023-04-08T12:59:14;19.70;47.70
10654;DHT22;5375;51.250;6.776;2023-04-08T13:01:42;19.70;47.70
10654;DHT22;5375;51.250;6.776;2023-04-08T13:04:08;19.70;47.70
10654;DHT22;5375;51.250;6.776;2023-04-08T13:06:34;19.70;47.70
10654;DHT22;5375;51.250;6.776;2023-04-08T13:09:08;19.70;47.70
10654;DHT22;5375;51.250;6.776;2023-04-08T13:11:33;19.70;47.70
10654;DHT22;5375;51.250;6.776;2023-04-08T13:13:59;19.70;47.70
10654;DHT22;5375;51.250;6.776;2023-04-08T13:16:24;19.70;47.60
10654;DHT22;5375;51.250;6.776;2023-04-08T13:18:50;19.70;47.60
10654;DHT22;5375;51.250;6.776;2023-04-08T13:21:16;19.70;47.60
10654;DHT22;5375;51.250;6.776;2023-04-08T13:23:42;19.70;47.60
10654;DHT22;5375;51.250;6.776;2023-04-08T13:26:08;19.70;47.70
10654;DHT22;5375;51.250;6.776;2023-04-08T13:28:34;19.70;47.80
10654;DHT22;5375;51.250;6.776;2023-04-08T13:31:00;19.70;47.80
10654;DHT22;5375;51.250;6.776;2023-04-08T13:33:29;19.70;47.90
10654;DHT22;5375;51.250;6.776;2023-04-08T13:35:56;19.70;47.90
10654;DHT22;5375;51.250;6.776;2023-04-08T13:38:22;19.70;47.90
10654;DHT22;5375;51.250;6.776;2023-04-08T13:40:49;19.70;47.90
10654;DHT22;5375;51.250;6.776;2023-04-08T13:43:15;19.70;48.00
10654;DHT22;5375;51.250;6.776;2023-04-08T13:45:41;19.70;48.10
10654;DHT22;5375;51.250;6.776;2023-04-08T13:48:07;19.70;48.00
10654;DHT22;5375;51.250;6.776;2023-04-08T13:50:33;19.70;48.00
10654;DHT22;5375;51.250;6.776;2023-04-08T13:53:01;19.70;48.10
10654;DHT22;5375;51.250;6.776;2023-04-08T13:55:28;19.70;48.10
10654;DHT22;5375;51.250;6.776;2023-04-08T13:57:54;19.70;48.10
10654;DHT22;5375;51.250;6.776;2023-04-08T14:00:22;19.70;48.10
10654;DHT22;5375;51.250;6.776;2023-04-08T14:02:51;19.70;48.20
10654;DHT22;5375;51.250;6.776;2023-04-08T14:05:17;19.70;48.20
10654;DHT22;5375;51.250;6.776;2023-04-08T14:07:43;19.70;48.20
10654;DHT22;5375;51.250;6.776;2023-04-08T14:10:09;19.70;48.30
10654;DHT22;5375;51.250;6.776;2023-04-08T14:12:35;19.70;48.20
10654;DHT22;5375;51.250;6.776;2023-04-08T14:15:01;19.70;48.20
10654;DHT22;5375;51.250;6.776;2023-04-08T14:17:27;19.70;48.20
10654;DHT22;5375;51.250;6.776;2023-04-08T14:19:56;19.70;48.10
10654;DHT22;5375;51.250;6.776;2023-04-08T14:22:23;19.70;48.20
10654;DHT22;5375;51.250;6.776;2023-04-08T14:24:51;19.70;48.10
10654;DHT22;5375;51.250;6.776;2023-04-08T14:27:20;19.70;48.10
10654;DHT22;5375;51.250;6.776;2023-04-08T14:29:45;19.70;48.00
10654;DHT22;5375;51.250;6.776;2023-04-08T14:32:12;19.70;48.00
10654;DHT22;5375;51.250;6.776;2023-04-08T14:34:38;19.70;48.00
10654;DHT22;5375;51.250;6.776;2023-04-08T14:37:03;19.70;48.00
10654;DHT22;5375;51.250;6.776;2023-04-08T14:39:29;19.70;48.00
10654;DHT22;5375;51.250;6.776;2023-04-08T14:41:55;19.70;48.00
10654;DHT22;5375;51.250;6.776;2023-04-08T14:44:24;19.70;48.00
10654;DHT22;5375;51.250;6.776;2023-04-08T14:46:50;19.70;48.00
10654;DHT22;5375;51.250;6.776;2023-04-08T14:49:16;19.70;48.00
10654;DHT22;5375;51.250;6.776;2023-04-08T14:51:41;19.70;48.00
10654;DHT22;5375;51.250;6.776;2023-04-08T14:54:07;19.70;48.00
10654;DHT22;5375;51.250;6.776;2023-04-08T14:56:33;19.70;48.00
10654;DHT22;5375;51.250;6.776;2023-04-08T14:58:58;19.70;48.00
10654;DHT22;5375;51.250;6.776;2023-04-08T15:01:24;19.70;48.00
10654;DHT22;5375;51.250;6.776;2023-04-08T15:03:50;19.70;48.00
10654;DHT22;5375;51.250;6.776;2023-04-08T15:06:15;19.70;48.00
10654;DHT22;5375;51.250;6.776;2023-04-08T15:08:42;19.70;48.00
10654;DHT22;5375;51.250;6.776;2023-04-08T15:11:08;19.70;48.00
10654;DHT22;5375;51.250;6.776;2023-04-08T15:13:36;19.70;48.00
10654;DHT22;5375;51.250;6.776;2023-04-08T15:16:03;19.70;48.00
10654;DHT22;5375;51.250;6.776;2023-04-08T15:18:30;19.70;47.90
10654;DHT22;5375;51.250;6.776;2023-04-08T15:20:55;19.70;48.00
10654;DHT22;5375;51.250;6.776;2023-04-08T15:23:22;19.70;48.00
10654;DHT22;5375;51.250;6.776;2023-04-08T15:25:48;19.70;48.00
10654;DHT22;5375;51.250;6.776;2023-04-08T15:28:15;19.70;47.90
10654;DHT22;5375;51.250;6.776;2023-04-08T15:33:16;19.70;48.00
10654;DHT22;5375;51.250;6.776;2023-04-08T15:35:44;19.70;48.00
10654;DHT22;5375;51.250;6.776;2023-04-08T15:38:11;19.70;47.90
10654;DHT22;5375;51.250;6.776;2023-04-08T15:40:37;19.70;47.90
10654;DHT22;5375;51.250;6.776;2023-04-08T15:43:05;19.70;48.00
10654;DHT22;5375;51.250;6.776;2023-04-08T15:45:31;19.70;48.00
10654;DHT22;5375;51.250;6.776;2023-04-08T15:50:33;19.70;48.00
10654;DHT22;5375;51.250;6.776;2023-04-08T15:52:58;19.70;47.90
10654;DHT22;5375;51.250;6.776;2023-04-08T15:55:24;19.70;47.90
10654;DHT22;5375;51.250;6.776;2023-04-08T15:57:49;19.70;48.00
10654;DHT22;5375;51.250;6.776;2023-04-08T16:00:18;19.70;47.90
10654;DHT22;5375;51.250;6.776;2023-04-08T16:02:44;19.70;47.90
10654;DHT22;5375;51.250;6.776;2023-04-08T16:05:10;19.70;47.90
10654;DHT22;5375;51.250;6.776;2023-04-08T16:07:37;19.70;47.90
10654;DHT22;5375;51.250;6.776;2023-04-08T16:10:03;19.70;48.10
10654;DHT22;5375;51.250;6.776;2023-04-08T16:12:29;19.70;47.90
10654;DHT22;5375;51.250;6.776;2023-04-08T16:14:55;19.70;47.90
10654;DHT22;5375;51.250;6.776;2023-04-08T16:17:21;19.70;47.90
10654;DHT22;5375;51.250;6.776;2023-04-08T16:19:48;19.70;47.90
10654;DHT22;5375;51.250;6.776;2023-04-08T16:22:14;19.70;47.90
10654;DHT22;5375;51.250;6.776;2023-04-08T16:24:39;19.70;47.90
10654;DHT22;5375;51.250;6.776;2023-04-08T16:27:05;19.70;47.90
10654;DHT22;5375;51.250;6.776;2023-04-08T16:29:31;19.70;47.90
10654;DHT22;5375;51.250;6.776;2023-04-08T16:31:56;19.70;47.80
10654;DHT22;5375;51.250;6.776;2023-04-08T16:34:22;19.70;47.90
10654;DHT22;5375;51.250;6.776;2023-04-08T16:36:48;19.70;47.90
10654;DHT22;5375;51.250;6.776;2023-04-08T16:39:13;19.70;47.80